sensor_id;sensor_type;location;lat;lon;timestamp;P1;durP1;ratioP1;P2;durP2;ratioP2
45059;SDS011;30799;49.060;9.312;2023-03-01T00:01:07;2.70;;;2.50;;
45059;SDS011;30799;49.060;9.312;2023-03-01T00:03:36;3.05;;;2.75;;
45059;SDS011;30799;49.060;9.312;2023-03-01T00:06:03;3.05;;;2.80;;
45059;SDS011;30799;49.060;9.312;2023-03-01T00:08:30;2.65;;;2.45;;
45059;SDS011;30799;49.060;9.312;2023-03-01T00:13:33;3.25;;;2.65;;
45059;SDS011;30799;49.060;9.312;2023-03-01T00:16:07;3.00;;;2.70;;
45059;SDS011;30799;49.060;9.312;2023-03-01T00:18:35;4.35;;;2.70;;
45059;SDS011;30799;49.060;9.312;2023-03-01T00:21:02;2.90;;;2.70;;
45059;SDS011;30799;49.060;9.312;2023-03-01T00:23:29;2.70;;;2.50;;
45059;SDS011;30799;49.060;9.312;2023-03-01T00:25:55;3.20;;;2.78;;
45059;SDS011;30799;49.060;9.312;2023-03-01T00:28:22;3.38;;;2.63;;
45059;SDS011;30799;49.060;9.312;2023-03-01T00:30:49;3.80;;;3.00;;
45059;SDS011;30799;49.060;9.312;2023-03-01T00:33:16;2.85;;;2.60;;
45059;SDS011;30799;49.060;9.312;2023-03-01T00:35:42;3.30;;;3.00;;
45059;SDS011;30799;49.060;9.312;2023-03-01T00:38:09;3.10;;;2.80;;
45059;SDS011;30799;49.060;9.312;2023-03-01T00:40:36;2.83;;;2.63;;
45059;SDS011;30799;49.060;9.312;2023-03-01T00:43:03;2.90;;;2.60;;
45059;SDS011;30799;49.060;9.312;2023-03-01T00:45:30;3.28;;;2.90;;
45059;SDS011;30799;49.060;9.312;2023-03-01T00:47:58;2.78;;;2.58;;
45059;SDS011;30799;49.060;9.312;2023-03-01T00:50:25;2.72;;;2.53;;
45059;SDS011;30799;49.060;9.312;2023-03-01T00:52:53;3.20;;;2.83;;
45059;SDS011;30799;49.060;9.312;2023-03-01T00:55:21;2.80;;;2.60;;
45059;SDS011;30799;49.060;9.312;2023-03-01T00:57:48;2.85;;;2.65;;
45059;SDS011;30799;49.060;9.312;2023-03-01T01:00:14;3.38;;;3.08;;
45059;SDS011;30799;49.060;9.312;2023-03-01T01:02:41;3.25;;;2.83;;
45059;SDS011;30799;49.060;9.312;2023-03-01T01:05:08;3.20;;;2.88;;
45059;SDS011;30799;49.060;9.312;2023-03-01T01:07:35;3.33;;;2.97;;
45059;SDS011;30799;49.060;9.312;2023-03-01T01:10:02;3.13;;;2.80;;
45059;SDS011;30799;49.060;9.312;2023-03-01T01:12:29;3.38;;;3.03;;
45059;SDS011;30799;49.060;9.312;2023-03-01T01:14:55;2.90;;;2.60;;
45059;SDS011;30799;49.060;9.312;2023-03-01T01:17:22;3.30;;;3.00;;
45059;SDS011;30799;49.060;9.312;2023-03-01T01:19:49;3.13;;;2.83;;
45059;SDS011;30799;49.060;9.312;2023-03-01T01:22:16;2.80;;;2.60;;
45059;SDS011;30799;49.060;9.312;2023-03-01T01:24:42;2.97;;;2.65;;
45059;SDS011;30799;49.060;9.312;2023-03-01T01:27:09;3.00;;;2.50;;
45059;SDS011;30799;49.060;9.312;2023-03-01T01:29:35;2.75;;;2.55;;
45059;SDS011;30799;49.060;9.312;2023-03-01T01:32:02;4.00;;;3.50;;
45059;SDS011;30799;49.060;9.312;2023-03-01T01:34:29;3.17;;;2.88;;
45059;SDS011;30799;49.060;9.312;2023-03-01T01:36:56;3.30;;;2.67;;
45059;SDS011;30799;49.060;9.312;2023-03-01T01:39:22;3.50;;;3.20;;
45059;SDS011;30799;49.060;9.312;2023-03-01T01:41:49;3.33;;;2.90;;
45059;SDS011;30799;49.060;9.312;2023-03-01T01:44:17;3.10;;;2.80;;
45059;SDS011;30799;49.060;9.312;2023-03-01T01:51:59;3.28;;;2.90;;
45059;SDS011;30799;49.060;9.312;2023-03-01T01:54:44;2.90;;;2.70;;
45059;SDS011;30799;49.060;9.312;2023-03-01T01:57:25;3.72;;;2.80;;
45059;SDS011;30799;49.060;9.312;2023-03-01T01:59:56;3.45;;;3.15;;
45059;SDS011;30799;49.060;9.312;2023-03-01T02:02:26;3.20;;;2.90;;
45059;SDS011;30799;49.060;9.312;2023-03-01T02:04:55;3.75;;;2.92;;
45059;SDS011;30799;49.060;9.312;2023-03-01T02:07:36;3.17;;;2.72;;
45059;SDS011;30799;49.060;9.312;2023-03-01T02:10:05;3.17;;;2.88;;
45059;SDS011;30799;49.060;9.312;2023-03-01T02:12:32;3.53;;;3.22;;
45059;SDS011;30799;49.060;9.312;2023-03-01T02:15:01;3.10;;;2.60;;
45059;SDS011;30799;49.060;9.312;2023-03-01T02:17:28;3.75;;;3.33;;
45059;SDS011;30799;49.060;9.312;2023-03-01T02:22:44;3.20;;;2.90;;
45059;SDS011;30799;49.060;9.312;2023-03-01T02:30:29;3.30;;;3.00;;
45059;SDS011;30799;49.060;9.312;2023-03-01T02:32:57;2.92;;;2.65;;
45059;SDS011;30799;49.060;9.312;2023-03-01T02:35:29;3.20;;;2.90;;
45059;SDS011;30799;49.060;9.312;2023-03-01T02:37:58;3.28;;;2.97;;
45059;SDS011;30799;49.060;9.312;2023-03-01T02:40:28;3.33;;;3.00;;
45059;SDS011;30799;49.060;9.312;2023-03-01T02:42:57;3.17;;;2.88;;
45059;SDS011;30799;49.060;9.312;2023-03-01T02:45:25;3.28;;;2.97;;
45059;SDS011;30799;49.060;9.312;2023-03-01T02:47:56;3.40;;;3.10;;
45059;SDS011;30799;49.060;9.312;2023-03-01T02:55:22;3.13;;;2.83;;
45059;SDS011;30799;49.060;9.312;2023-03-01T02:57:49;3.33;;;3.03;;
45059;SDS011;30799;49.060;9.312;2023-03-01T03:00:18;3.78;;;3.13;;
45059;SDS011;30799;49.060;9.312;2023-03-01T03:02:49;3.78;;;3.42;;
45059;SDS011;30799;49.060;9.312;2023-03-01T03:07:49;3.42;;;3.10;;
45059;SDS011;30799;49.060;9.312;2023-03-01T03:10:35;3.20;;;2.90;;
45059;SDS011;30799;49.060;9.312;2023-03-01T03:13:08;3.30;;;3.00;;
45059;SDS011;30799;49.060;9.312;2023-03-01T03:15:37;3.20;;;2.90;;
45059;SDS011;30799;49.060;9.312;2023-03-01T03:18:08;3.45;;;3.15;;
45059;SDS011;30799;49.060;9.312;2023-03-01T03:20:39;3.40;;;3.10;;
45059;SDS011;30799;49.060;9.312;2023-03-01T03:23:07;3.00;;;2.70;;
45059;SDS011;30799;49.060;9.312;2023-03-01T03:25:34;3.03;;;2.75;;
45059;SDS011;30799;49.060;9.312;2023-03-01T03:28:04;2.65;;;2.45;;
45059;SDS011;30799;49.060;9.312;2023-03-01T03:30:36;3.75;;;3.38;;
45059;SDS011;30799;49.060;9.312;2023-03-01T03:33:05;3.85;;;2.90;;
45059;SDS011;30799;49.060;9.312;2023-03-01T03:35:33;3.60;;;3.30;;
45059;SDS011;30799;49.060;9.312;2023-03-01T03:38:05;3.25;;;2.95;;
45059;SDS011;30799;49.060;9.312;2023-03-01T03:40:37;3.20;;;2.60;;
45059;SDS011;30799;49.060;9.312;2023-03-01T03:43:07;3.03;;;2.72;;
45059;SDS011;30799;49.060;9.312;2023-03-01T03:45:36;2.95;;;2.65;;
45059;SDS011;30799;49.060;9.312;2023-03-01T03:48:03;3.58;;;3.28;;
45059;SDS011;30799;49.060;9.312;2023-03-01T03:50:31;3.10;;;2.78;;
45059;SDS011;30799;49.060;9.312;2023-03-01T03:53:03;3.22;;;2.92;;
45059;SDS011;30799;49.060;9.312;2023-03-01T03:55:31;3.42;;;3.13;;
45059;SDS011;30799;49.060;9.312;2023-03-01T03:58:00;3.30;;;3.00;;
45059;SDS011;30799;49.060;9.312;2023-03-01T04:00:33;2.95;;;2.72;;
45059;SDS011;30799;49.060;9.312;2023-03-01T04:03:01;3.95;;;3.38;;
45059;SDS011;30799;49.060;9.312;2023-03-01T04:05:28;3.25;;;2.90;;
45059;SDS011;30799;49.060;9.312;2023-03-01T04:07:55;3.20;;;2.85;;
45059;SDS011;30799;49.060;9.312;2023-03-01T04:10:30;3.50;;;3.20;;
45059;SDS011;30799;49.060;9.312;2023-03-01T04:12:58;2.90;;;2.70;;
45059;SDS011;30799;49.060;9.312;2023-03-01T04:15:26;3.45;;;3.05;;
45059;SDS011;30799;49.060;9.312;2023-03-01T04:17:53;4.10;;;3.30;;
45059;SDS011;30799;49.060;9.312;2023-03-01T04:20:21;3.30;;;3.00;;
45059;SDS011;30799;49.060;9.312;2023-03-01T04:22:58;3.72;;;3.00;;
45059;SDS011;30799;49.060;9.312;2023-03-01T04:25:44;3.50;;;3.20;;
45059;SDS011;30799;49.060;9.312;2023-03-01T04:28:35;3.70;;;3.17;;
45059;SDS011;30799;49.060;9.312;2023-03-01T04:31:04;3.05;;;2.75;;
45059;SDS011;30799;49.060;9.312;2023-03-01T04:33:43;4.10;;;3.60;;
45059;SDS011;30799;49.060;9.312;2023-03-01T04:36:15;3.88;;;3.30;;
45059;SDS011;30799;49.060;9.312;2023-03-01T04:38:43;3.30;;;3.00;;
45059;SDS011;30799;49.060;9.312;2023-03-01T04:41:15;2.95;;;2.65;;
45059;SDS011;30799;49.060;9.312;2023-03-01T04:43:46;3.33;;;3.03;;
45059;SDS011;30799;49.060;9.312;2023-03-01T04:46:16;3.60;;;3.30;;
45059;SDS011;30799;49.060;9.312;2023-03-01T04:48:44;3.55;;;3.15;;
45059;SDS011;30799;49.060;9.312;2023-03-01T04:51:12;3.72;;;3.22;;
45059;SDS011;30799;49.060;9.312;2023-03-01T04:53:40;3.38;;;3.08;;
45059;SDS011;30799;49.060;9.312;2023-03-01T04:56:07;3.30;;;3.00;;
45059;SDS011;30799;49.060;9.312;2023-03-01T04:58:34;3.38;;;3.08;;
45059;SDS011;30799;49.060;9.312;2023-03-01T05:01:01;3.47;;;2.90;;
45059;SDS011;30799;49.060;9.312;2023-03-01T05:03:44;3.58;;;3.28;;
45059;SDS011;30799;49.060;9.312;2023-03-01T05:06:13;3.55;;;3.20;;
45059;SDS011;30799;49.060;9.312;2023-03-01T05:08:40;3.35;;;3.05;;
45059;SDS011;30799;49.060;9.312;2023-03-01T05:11:07;3.55;;;3.25;;
45059;SDS011;30799;49.060;9.312;2023-03-01T05:13:35;5.25;;;3.40;;
45059;SDS011;30799;49.060;9.312;2023-03-01T05:16:03;3.38;;;3.08;;
45059;SDS011;30799;49.060;9.312;2023-03-01T05:18:32;3.50;;;3.20;;
45059;SDS011;30799;49.060;9.312;2023-03-01T05:21:03;3.03;;;2.72;;
45059;SDS011;30799;49.060;9.312;2023-03-01T05:23:35;3.40;;;3.00;;
45059;SDS011;30799;49.060;9.312;2023-03-01T05:26:03;3.28;;;2.90;;
45059;SDS011;30799;49.060;9.312;2023-03-01T05:28:36;3.83;;;3.42;;
45059;SDS011;30799;49.060;9.312;2023-03-01T05:31:04;3.28;;;2.78;;
45059;SDS011;30799;49.060;9.312;2023-03-01T05:33:36;2.90;;;2.70;;
45059;SDS011;30799;49.060;9.312;2023-03-01T05:36:04;3.40;;;3.10;;
45059;SDS011;30799;49.060;9.312;2023-03-01T05:38:35;3.22;;;2.92;;
45059;SDS011;30799;49.060;9.312;2023-03-01T05:41:02;3.38;;;2.88;;
45059;SDS011;30799;49.060;9.312;2023-03-01T05:43:32;3.33;;;3.03;;
45059;SDS011;30799;49.060;9.312;2023-03-01T05:46:01;3.08;;;2.78;;
45059;SDS011;30799;49.060;9.312;2023-03-01T05:48:28;3.47;;;2.85;;
45059;SDS011;30799;49.060;9.312;2023-03-01T05:50:57;3.65;;;3.30;;
45059;SDS011;30799;49.060;9.312;2023-03-01T05:53:26;3.22;;;2.92;;
45059;SDS011;30799;49.060;9.312;2023-03-01T05:55:52;3.67;;;3.38;;
45059;SDS011;30799;49.060;9.312;2023-03-01T05:58:19;3.42;;;3.13;;
45059;SDS011;30799;49.060;9.312;2023-03-01T06:00:46;3.40;;;3.10;;
45059;SDS011;30799;49.060;9.312;2023-03-01T06:03:16;4.07;;;3.28;;
45059;SDS011;30799;49.060;9.312;2023-03-01T06:05:44;3.55;;;3.25;;
45059;SDS011;30799;49.060;9.312;2023-03-01T06:08:11;3.10;;;2.80;;
45059;SDS011;30799;49.060;9.312;2023-03-01T06:10:38;3.60;;;3.30;;
45059;SDS011;30799;49.060;9.312;2023-03-01T06:13:05;3.15;;;2.85;;
45059;SDS011;30799;49.060;9.312;2023-03-01T06:15:31;3.55;;;3.20;;
45059;SDS011;30799;49.060;9.312;2023-03-01T06:17:58;3.67;;;3.38;;
45059;SDS011;30799;49.060;9.312;2023-03-01T06:20:26;3.50;;;3.20;;
45059;SDS011;30799;49.060;9.312;2023-03-01T06:22:54;3.25;;;2.95;;
45059;SDS011;30799;49.060;9.312;2023-03-01T06:25:22;3.33;;;3.03;;
45059;SDS011;30799;49.060;9.312;2023-03-01T06:27:50;3.47;;;3.00;;
45059;SDS011;30799;49.060;9.312;2023-03-01T06:30:19;3.83;;;3.53;;
45059;SDS011;30799;49.060;9.312;2023-03-01T06:32:47;3.08;;;2.85;;
45059;SDS011;30799;49.060;9.312;2023-03-01T06:35:14;3.58;;;3.15;;
45059;SDS011;30799;49.060;9.312;2023-03-01T06:37:46;3.60;;;3.28;;
45059;SDS011;30799;49.060;9.312;2023-03-01T06:40:13;3.30;;;3.00;;
45059;SDS011;30799;49.060;9.312;2023-03-01T06:42:41;3.92;;;3.55;;
45059;SDS011;30799;49.060;9.312;2023-03-01T06:45:09;4.25;;;3.70;;
45059;SDS011;30799;49.060;9.312;2023-03-01T06:47:36;3.67;;;3.35;;
45059;SDS011;30799;49.060;9.312;2023-03-01T06:50:03;3.58;;;3.17;;
45059;SDS011;30799;49.060;9.312;2023-03-01T06:52:30;3.95;;;3.17;;
45059;SDS011;30799;49.060;9.312;2023-03-01T06:54:57;4.20;;;3.50;;
45059;SDS011;30799;49.060;9.312;2023-03-01T06:57:23;3.67;;;3.20;;
45059;SDS011;30799;49.060;9.312;2023-03-01T06:59:50;3.50;;;3.20;;
45059;SDS011;30799;49.060;9.312;2023-03-01T07:02:17;3.58;;;3.28;;
45059;SDS011;30799;49.060;9.312;2023-03-01T07:04:44;3.35;;;3.05;;
45059;SDS011;30799;49.060;9.312;2023-03-01T07:07:10;3.88;;;3.38;;
45059;SDS011;30799;49.060;9.312;2023-03-01T07:09:37;3.67;;;3.38;;
45059;SDS011;30799;49.060;9.312;2023-03-01T07:12:04;3.80;;;3.28;;
45059;SDS011;30799;49.060;9.312;2023-03-01T07:14:31;4.00;;;3.60;;
45059;SDS011;30799;49.060;9.312;2023-03-01T07:16:57;3.92;;;3.53;;
45059;SDS011;30799;49.060;9.312;2023-03-01T07:19:24;4.00;;;3.60;;
45059;SDS011;30799;49.060;9.312;2023-03-01T07:21:51;3.38;;;3.08;;
45059;SDS011;30799;49.060;9.312;2023-03-01T07:24:17;3.47;;;3.17;;
45059;SDS011;30799;49.060;9.312;2023-03-01T07:26:44;3.60;;;3.28;;
45059;SDS011;30799;49.060;9.312;2023-03-01T07:29:13;3.50;;;3.20;;
45059;SDS011;30799;49.060;9.312;2023-03-01T07:31:40;3.65;;;3.20;;
45059;SDS011;30799;49.060;9.312;2023-03-01T07:34:07;3.83;;;3.53;;
45059;SDS011;30799;49.060;9.312;2023-03-01T07:36:33;3.63;;;3.25;;
45059;SDS011;30799;49.060;9.312;2023-03-01T07:39:00;5.03;;;3.92;;
45059;SDS011;30799;49.060;9.312;2023-03-01T07:41:28;3.70;;;3.40;;
45059;SDS011;30799;49.060;9.312;2023-03-01T07:43:55;3.95;;;3.55;;
45059;SDS011;30799;49.060;9.312;2023-03-01T07:46:22;3.53;;;3.03;;
45059;SDS011;30799;49.060;9.312;2023-03-01T07:48:48;3.35;;;3.05;;
45059;SDS011;30799;49.060;9.312;2023-03-01T07:51:15;3.97;;;3.55;;
45059;SDS011;30799;49.060;9.312;2023-03-01T07:53:41;3.78;;;3.47;;
45059;SDS011;30799;49.060;9.312;2023-03-01T07:56:11;3.47;;;3.10;;
45059;SDS011;30799;49.060;9.312;2023-03-01T07:58:40;3.58;;;3.28;;
45059;SDS011;30799;49.060;9.312;2023-03-01T08:01:11;3.90;;;3.47;;
45059;SDS011;30799;49.060;9.312;2023-03-01T08:03:40;3.90;;;3.50;;
45059;SDS011;30799;49.060;9.312;2023-03-01T08:06:07;4.10;;;2.90;;
45059;SDS011;30799;49.060;9.312;2023-03-01T08:08:35;3.50;;;3.20;;
45059;SDS011;30799;49.060;9.312;2023-03-01T08:11:02;3.50;;;3.13;;
45059;SDS011;30799;49.060;9.312;2023-03-01T08:13:30;3.47;;;3.03;;
45059;SDS011;30799;49.060;9.312;2023-03-01T08:16:04;4.07;;;3.35;;
45059;SDS011;30799;49.060;9.312;2023-03-01T08:18:33;3.55;;;3.13;;
45059;SDS011;30799;49.060;9.312;2023-03-01T08:21:21;3.50;;;3.20;;
45059;SDS011;30799;49.060;9.312;2023-03-01T08:23:47;3.40;;;3.00;;
45059;SDS011;30799;49.060;9.312;2023-03-01T08:26:15;3.47;;;3.17;;
45059;SDS011;30799;49.060;9.312;2023-03-01T08:28:47;3.60;;;3.30;;
45059;SDS011;30799;49.060;9.312;2023-03-01T08:31:20;3.63;;;3.20;;
45059;SDS011;30799;49.060;9.312;2023-03-01T08:33:52;4.22;;;3.83;;
45059;SDS011;30799;49.060;9.312;2023-03-01T08:36:22;3.50;;;3.20;;
45059;SDS011;30799;49.060;9.312;2023-03-01T08:38:52;3.42;;;3.13;;
45059;SDS011;30799;49.060;9.312;2023-03-01T08:41:19;3.95;;;3.17;;
45059;SDS011;30799;49.060;9.312;2023-03-01T08:43:46;3.50;;;3.20;;
45059;SDS011;30799;49.060;9.312;2023-03-01T08:46:13;3.80;;;3.40;;
45059;SDS011;30799;49.060;9.312;2023-03-01T08:48:40;3.78;;;3.28;;
45059;SDS011;30799;49.060;9.312;2023-03-01T08:51:09;3.55;;;3.25;;
45059;SDS011;30799;49.060;9.312;2023-03-01T08:53:38;3.70;;;3.40;;
45059;SDS011;30799;49.060;9.312;2023-03-01T08:56:06;3.92;;;3.22;;
45059;SDS011;30799;49.060;9.312;2023-03-01T08:58:33;3.92;;;3.33;;
45059;SDS011;30799;49.060;9.312;2023-03-01T09:01:00;3.65;;;3.35;;
45059;SDS011;30799;49.060;9.312;2023-03-01T09:03:26;4.13;;;3.67;;
45059;SDS011;30799;49.060;9.312;2023-03-01T09:05:53;3.63;;;3.10;;
45059;SDS011;30799;49.060;9.312;2023-03-01T09:08:26;3.17;;;2.88;;
45059;SDS011;30799;49.060;9.312;2023-03-01T09:10:53;4.03;;;3.55;;
45059;SDS011;30799;49.060;9.312;2023-03-01T09:13:19;3.72;;;3.03;;
45059;SDS011;30799;49.060;9.312;2023-03-01T09:15:46;3.33;;;3.03;;
45059;SDS011;30799;49.060;9.312;2023-03-01T09:18:13;3.40;;;3.10;;
45059;SDS011;30799;49.060;9.312;2023-03-01T09:20:39;3.42;;;3.13;;
45059;SDS011;30799;49.060;9.312;2023-03-01T09:23:06;3.28;;;2.97;;
45059;SDS011;30799;49.060;9.312;2023-03-01T09:25:33;3.65;;;3.20;;
45059;SDS011;30799;49.060;9.312;2023-03-01T09:28:00;5.05;;;3.85;;
45059;SDS011;30799;49.060;9.312;2023-03-01T09:30:27;4.00;;;3.60;;
45059;SDS011;30799;49.060;9.312;2023-03-01T09:32:55;3.75;;;3.40;;
45059;SDS011;30799;49.060;9.312;2023-03-01T09:35:23;3.55;;;3.20;;
45059;SDS011;30799;49.060;9.312;2023-03-01T09:37:49;3.92;;;3.20;;
45059;SDS011;30799;49.060;9.312;2023-03-01T09:40:18;3.58;;;3.28;;
45059;SDS011;30799;49.060;9.312;2023-03-01T09:43:02;3.60;;;3.30;;
45059;SDS011;30799;49.060;9.312;2023-03-01T09:45:39;3.47;;;3.17;;
45059;SDS011;30799;49.060;9.312;2023-03-01T09:48:12;3.35;;;3.05;;
45059;SDS011;30799;49.060;9.312;2023-03-01T09:50:47;3.30;;;3.00;;
45059;SDS011;30799;49.060;9.312;2023-03-01T09:53:21;3.35;;;3.05;;
45059;SDS011;30799;49.060;9.312;2023-03-01T10:01:03;3.70;;;3.40;;
45059;SDS011;30799;49.060;9.312;2023-03-01T10:03:56;3.67;;;3.20;;
45059;SDS011;30799;49.060;9.312;2023-03-01T10:06:50;3.65;;;3.35;;
45059;SDS011;30799;49.060;9.312;2023-03-01T10:09:42;3.38;;;3.08;;
45059;SDS011;30799;49.060;9.312;2023-03-01T10:12:12;3.58;;;3.20;;
45059;SDS011;30799;49.060;9.312;2023-03-01T10:20:23;3.75;;;2.83;;
45059;SDS011;30799;49.060;9.312;2023-03-01T10:22:51;3.00;;;2.78;;
45059;SDS011;30799;49.060;9.312;2023-03-01T10:30:43;3.53;;;3.08;;
45059;SDS011;30799;49.060;9.312;2023-03-01T10:33:22;2.95;;;2.65;;
45059;SDS011;30799;49.060;9.312;2023-03-01T10:36:00;2.88;;;2.60;;
45059;SDS011;30799;49.060;9.312;2023-03-01T10:38:27;3.60;;;3.28;;
45059;SDS011;30799;49.060;9.312;2023-03-01T10:41:04;3.47;;;3.17;;
45059;SDS011;30799;49.060;9.312;2023-03-01T10:43:46;3.33;;;2.97;;
45059;SDS011;30799;49.060;9.312;2023-03-01T10:46:24;3.28;;;2.95;;
45059;SDS011;30799;49.060;9.312;2023-03-01T10:49:18;3.63;;;3.22;;
45059;SDS011;30799;49.060;9.312;2023-03-01T10:51:48;3.50;;;3.20;;
45059;SDS011;30799;49.060;9.312;2023-03-01T10:54:21;3.53;;;3.10;;
45059;SDS011;30799;49.060;9.312;2023-03-01T10:56:52;3.17;;;2.83;;
45059;SDS011;30799;49.060;9.312;2023-03-01T10:59:22;3.75;;;3.22;;
45059;SDS011;30799;49.060;9.312;2023-03-01T11:04:57;3.22;;;2.92;;
45059;SDS011;30799;49.060;9.312;2023-03-01T11:07:28;3.45;;;3.15;;
45059;SDS011;30799;49.060;9.312;2023-03-01T11:09:55;3.75;;;3.15;;
45059;SDS011;30799;49.060;9.312;2023-03-01T11:12:22;3.30;;;3.00;;
45059;SDS011;30799;49.060;9.312;2023-03-01T11:14:51;3.60;;;3.13;;
45059;SDS011;30799;49.060;9.312;2023-03-01T11:17:30;3.45;;;3.03;;
45059;SDS011;30799;49.060;9.312;2023-03-01T11:22:47;3.38;;;3.08;;
45059;SDS011;30799;49.060;9.312;2023-03-01T11:25:17;3.78;;;3.42;;
45059;SDS011;30799;49.060;9.312;2023-03-01T11:27:45;3.90;;;3.50;;
45059;SDS011;30799;49.060;9.312;2023-03-01T11:35:34;3.33;;;3.03;;
45059;SDS011;30799;49.060;9.312;2023-03-01T11:46:14;3.45;;;3.15;;
45059;SDS011;30799;49.060;9.312;2023-03-01T11:52:08;3.92;;;3.40;;
45059;SDS011;30799;49.060;9.312;2023-03-01T12:00:14;3.67;;;2.88;;
45059;SDS011;30799;49.060;9.312;2023-03-01T12:06:00;3.50;;;3.10;;
45059;SDS011;30799;49.060;9.312;2023-03-01T12:08:40;3.63;;;3.30;;
45059;SDS011;30799;49.060;9.312;2023-03-01T12:16:47;3.65;;;3.35;;
45059;SDS011;30799;49.060;9.312;2023-03-01T12:19:32;3.40;;;3.10;;
45059;SDS011;30799;49.060;9.312;2023-03-01T12:42:22;3.60;;;3.30;;
45059;SDS011;30799;49.060;9.312;2023-03-01T12:50:54;4.55;;;3.10;;
45059;SDS011;30799;49.060;9.312;2023-03-01T12:56:10;3.97;;;3.53;;
45059;SDS011;30799;49.060;9.312;2023-03-01T12:58:51;3.72;;;3.33;;
45059;SDS011;30799;49.060;9.312;2023-03-01T13:01:51;3.38;;;3.08;;
45059;SDS011;30799;49.060;9.312;2023-03-01T13:04:40;3.67;;;3.30;;
45059;SDS011;30799;49.060;9.312;2023-03-01T13:10:53;3.72;;;3.28;;
45059;SDS011;30799;49.060;9.312;2023-03-01T13:13:27;3.30;;;3.00;;
45059;SDS011;30799;49.060;9.312;2023-03-01T13:15:54;4.93;;;3.25;;
45059;SDS011;30799;49.060;9.312;2023-03-01T13:20:49;3.38;;;3.08;;
45059;SDS011;30799;49.060;9.312;2023-03-01T13:33:46;3.53;;;3.22;;
45059;SDS011;30799;49.060;9.312;2023-03-01T13:38:59;3.60;;;3.17;;
45059;SDS011;30799;49.060;9.312;2023-03-01T13:46:59;3.42;;;3.13;;
45059;SDS011;30799;49.060;9.312;2023-03-01T13:49:41;3.90;;;3.50;;
45059;SDS011;30799;49.060;9.312;2023-03-01T13:58:22;3.70;;;3.40;;
45059;SDS011;30799;49.060;9.312;2023-03-01T14:01:04;3.65;;;3.30;;
45059;SDS011;30799;49.060;9.312;2023-03-01T14:03:33;3.63;;;3.30;;
45059;SDS011;30799;49.060;9.312;2023-03-01T14:06:09;3.95;;;3.40;;
45059;SDS011;30799;49.060;9.312;2023-03-01T14:08:44;3.35;;;2.97;;
45059;SDS011;30799;49.060;9.312;2023-03-01T14:17:10;4.03;;;3.63;;
45059;SDS011;30799;49.060;9.312;2023-03-01T14:20:00;3.80;;;3.40;;
45059;SDS011;30799;49.060;9.312;2023-03-01T14:22:34;3.40;;;3.10;;
45059;SDS011;30799;49.060;9.312;2023-03-01T14:25:03;3.70;;;3.40;;
45059;SDS011;30799;49.060;9.312;2023-03-01T14:27:35;4.20;;;3.47;;
45059;SDS011;30799;49.060;9.312;2023-03-01T14:30:19;3.70;;;3.13;;
45059;SDS011;30799;49.060;9.312;2023-03-01T14:32:59;3.90;;;3.50;;
45059;SDS011;30799;49.060;9.312;2023-03-01T14:35:28;4.20;;;3.80;;
45059;SDS011;30799;49.060;9.312;2023-03-01T14:38:00;4.57;;;3.47;;
45059;SDS011;30799;49.060;9.312;2023-03-01T14:40:31;3.40;;;3.10;;
45059;SDS011;30799;49.060;9.312;2023-03-01T14:43:01;4.00;;;3.40;;
45059;SDS011;30799;49.060;9.312;2023-03-01T14:45:35;3.35;;;3.05;;
45059;SDS011;30799;49.060;9.312;2023-03-01T14:48:03;3.13;;;2.83;;
45059;SDS011;30799;49.060;9.312;2023-03-01T14:50:32;3.67;;;3.38;;
45059;SDS011;30799;49.060;9.312;2023-03-01T14:53:01;3.63;;;3.33;;
45059;SDS011;30799;49.060;9.312;2023-03-01T14:55:31;3.25;;;2.95;;
45059;SDS011;30799;49.060;9.312;2023-03-01T14:58:05;3.63;;;3.30;;
45059;SDS011;30799;49.060;9.312;2023-03-01T15:00:37;3.83;;;3.42;;
45059;SDS011;30799;49.060;9.312;2023-03-01T15:03:07;4.05;;;3.53;;
45059;SDS011;30799;49.060;9.312;2023-03-01T15:05:39;4.03;;;3.60;;
45059;SDS011;30799;49.060;9.312;2023-03-01T15:08:07;3.30;;;3.00;;
45059;SDS011;30799;49.060;9.312;2023-03-01T15:10:55;4.00;;;3.60;;
45059;SDS011;30799;49.060;9.312;2023-03-01T15:13:24;3.95;;;3.47;;
45059;SDS011;30799;49.060;9.312;2023-03-01T15:15:53;4.00;;;3.60;;
45059;SDS011;30799;49.060;9.312;2023-03-01T15:18:48;3.35;;;3.00;;
45059;SDS011;30799;49.060;9.312;2023-03-01T15:21:21;3.30;;;3.00;;
45059;SDS011;30799;49.060;9.312;2023-03-01T15:23:51;3.60;;;3.30;;
45059;SDS011;30799;49.060;9.312;2023-03-01T15:26:30;3.90;;;3.50;;
45059;SDS011;30799;49.060;9.312;2023-03-01T15:29:14;3.80;;;3.42;;
45059;SDS011;30799;49.060;9.312;2023-03-01T15:31:53;3.45;;;3.15;;
45059;SDS011;30799;49.060;9.312;2023-03-01T15:34:31;3.70;;;3.40;;
45059;SDS011;30799;49.060;9.312;2023-03-01T15:37:03;3.65;;;3.35;;
45059;SDS011;30799;49.060;9.312;2023-03-01T15:39:53;4.00;;;3.60;;
45059;SDS011;30799;49.060;9.312;2023-03-01T15:47:55;3.90;;;3.50;;
45059;SDS011;30799;49.060;9.312;2023-03-01T15:50:25;3.97;;;3.55;;
45059;SDS011;30799;49.060;9.312;2023-03-01T15:52:55;3.55;;;3.25;;
45059;SDS011;30799;49.060;9.312;2023-03-01T15:55:24;3.72;;;3.33;;
45059;SDS011;30799;49.060;9.312;2023-03-01T15:57:59;3.53;;;3.22;;
45059;SDS011;30799;49.060;9.312;2023-03-01T16:00:28;3.83;;;3.42;;
45059;SDS011;30799;49.060;9.312;2023-03-01T16:02:55;3.85;;;3.33;;
45059;SDS011;30799;49.060;9.312;2023-03-01T16:05:23;3.63;;;3.33;;
45059;SDS011;30799;49.060;9.312;2023-03-01T16:07:56;3.67;;;3.38;;
45059;SDS011;30799;49.060;9.312;2023-03-01T16:10:23;4.60;;;3.67;;
45059;SDS011;30799;49.060;9.312;2023-03-01T16:12:50;4.15;;;3.45;;
45059;SDS011;30799;49.060;9.312;2023-03-01T16:15:23;3.58;;;3.28;;
45059;SDS011;30799;49.060;9.312;2023-03-01T16:17:51;3.50;;;3.20;;
45059;SDS011;30799;49.060;9.312;2023-03-01T16:20:18;3.75;;;3.45;;
45059;SDS011;30799;49.060;9.312;2023-03-01T16:22:53;3.70;;;3.20;;
45059;SDS011;30799;49.060;9.312;2023-03-01T16:25:20;4.18;;;3.67;;
45059;SDS011;30799;49.060;9.312;2023-03-01T16:27:49;3.53;;;3.22;;
45059;SDS011;30799;49.060;9.312;2023-03-01T16:30:17;4.53;;;3.33;;
45059;SDS011;30799;49.060;9.312;2023-03-01T16:32:46;3.90;;;3.55;;
45059;SDS011;30799;49.060;9.312;2023-03-01T16:35:16;7.40;;;6.68;;
45059;SDS011;30799;49.060;9.312;2023-03-01T16:37:45;14.82;;;11.95;;
45059;SDS011;30799;49.060;9.312;2023-03-01T16:42:47;18.85;;;13.82;;
45059;SDS011;30799;49.060;9.312;2023-03-01T16:45:14;16.75;;;14.10;;
45059;SDS011;30799;49.060;9.312;2023-03-01T16:47:49;18.05;;;13.93;;
45059;SDS011;30799;49.060;9.312;2023-03-01T16:50:20;16.25;;;13.88;;
45059;SDS011;30799;49.060;9.312;2023-03-01T16:52:47;19.00;;;15.05;;
45059;SDS011;30799;49.060;9.312;2023-03-01T16:55:14;18.52;;;14.45;;
45059;SDS011;30799;49.060;9.312;2023-03-01T16:57:41;16.98;;;15.18;;
45059;SDS011;30799;49.060;9.312;2023-03-01T17:00:09;18.52;;;14.48;;
45059;SDS011;30799;49.060;9.312;2023-03-01T17:02:39;16.95;;;13.32;;
45059;SDS011;30799;49.060;9.312;2023-03-01T17:05:07;25.73;;;12.55;;
45059;SDS011;30799;49.060;9.312;2023-03-01T17:07:36;15.32;;;12.35;;
45059;SDS011;30799;49.060;9.312;2023-03-01T17:10:04;15.63;;;11.57;;
45059;SDS011;30799;49.060;9.312;2023-03-01T17:12:34;16.75;;;10.40;;
45059;SDS011;30799;49.060;9.312;2023-03-01T17:15:01;19.20;;;11.63;;
45059;SDS011;30799;49.060;9.312;2023-03-01T17:17:30;22.17;;;11.73;;
45059;SDS011;30799;49.060;9.312;2023-03-01T17:19:57;16.65;;;9.60;;
45059;SDS011;30799;49.060;9.312;2023-03-01T17:22:24;15.90;;;11.10;;
45059;SDS011;30799;49.060;9.312;2023-03-01T17:24:51;13.43;;;9.90;;
45059;SDS011;30799;49.060;9.312;2023-03-01T17:27:18;13.48;;;9.65;;
45059;SDS011;30799;49.060;9.312;2023-03-01T17:29:45;10.90;;;8.00;;
45059;SDS011;30799;49.060;9.312;2023-03-01T17:32:12;12.40;;;7.95;;
45059;SDS011;30799;49.060;9.312;2023-03-01T17:34:39;10.02;;;8.15;;